Terminal Aerodrome Forecast
Issued by NWS Wilmington, OH

Current Version | Previous Version | Text Only | Print | Product List | Glossary Off
Versions: 1 2 3 4 5 6 7 8 9 10 11 12 13 14

152
FTUS41 KILN 271120
TAFCMH
TAF
KCMH 271120Z 2712/2812 29005KT P6SM FEW080
     FM271500 31008KT P6SM SCT040
     FM280000 VRB03KT P6SM FEW250=

USA.gov is the U.S. government's official web portal to all federal, state and local government web resources and services.